Time;durP1;ratioP1;P1;durP2;ratioP2;P2;SDS_P1;SDS_P2;PMS_P1;PMS_P2;Temp;Humidity;BMP_temperature;BMP_pressure;BME280_temperature;BME280_humidity;BME280_pressure;Samples;Min_cycle;Max_cycle;Signal;HPM_P1;HPM_P2
2023/07/07 00:02:11;;;;;;;6.80;3.70;;;;;;;;;;4906697;28;98619;-77
2023/07/07 00:04:38;;;;;;;5.05;2.88;;;;;;;;;;4912265;28;98564;-77
2023/07/07 00:07:05;;;;;;;6.88;3.80;;;;;;;;;;4894782;28;100277;-77
2023/07/07 00:09:31;;;;;;;8.55;3.97;;;;;;;;;;4908050;28;98483;-77
2023/07/07 00:11:59;;;;;;;5.90;3.80;;;;;;;;;;4908768;28;98504;-77
2023/07/07 00:14:26;;;;;;;11.68;4.32;;;;;;;;;;4914433;28;98571;-77
2023/07/07 00:16:53;;;;;;;5.47;3.83;;;;;;;;;;4906450;28;98928;-77
2023/07/07 00:19:19;;;;;;;6.15;4.28;;;;;;;;;;4912900;28;98391;-77
2023/07/07 00:21:46;;;;;;;3.78;3.20;;;;;;;;;;4912386;28;98544;-77
2023/07/07 00:24:12;;;;;;;9.68;4.00;;;;;;;;;;4892417;28;99862;-77
2023/07/07 00:26:39;;;;;;;5.65;3.50;;;;;;;;;;4894884;28;100968;-77
2023/07/07 00:29:06;;;;;;;5.25;3.38;;;;;;;;;;4896414;28;98586;-77
2023/07/07 00:31:33;;;;;;;5.45;3.80;;;;;;;;;;4897015;28;98358;-77
2023/07/07 00:33:59;;;;;;;5.00;2.90;;;;;;;;;;4900936;28;99122;-77
2023/07/07 00:36:26;;;;;;;6.07;3.97;;;;;;;;;;4899300;28;98418;-77
2023/07/07 00:38:52;;;;;;;5.22;3.30;;;;;;;;;;4900175;28;99552;-77
2023/07/07 00:41:19;;;;;;;4.05;3.65;;;;;;;;;;4925151;28;97987;-77
2023/07/07 00:44:05;;;;;;;5.53;3.63;;;;;;;;;;4912404;28;98557;-77
2023/07/07 00:46:31;;;;;;;4.57;3.95;;;;;;;;;;4901362;28;98708;-77
2023/07/07 00:49:00;;;;;;;3.85;3.45;;;;;;;;;;4892218;28;99297;-77
2023/07/07 00:51:30;;;;;;;4.72;3.30;;;;;;;;;;4894720;28;100530;-77
2023/07/07 00:53:56;;;;;;;6.75;3.67;;;;;;;;;;4912303;28;99980;-77
2023/07/07 00:56:28;;;;;;;4.65;3.08;;;;;;;;;;4885091;28;98529;-77
2023/07/07 00:58:58;;;;;;;3.55;3.25;;;;;;;;;;4895524;28;100757;-77
2023/07/07 01:01:25;;;;;;;4.68;3.72;;;;;;;;;;4899233;28;98497;-77
2023/07/07 01:03:53;;;;;;;5.90;4.30;;;;;;;;;;4902708;28;99474;-77
2023/07/07 01:06:29;;;;;;;4.43;4.03;;;;;;;;;;4893516;28;100552;-77
2023/07/07 01:09:00;;;;;;;4.82;4.32;;;;;;;;;;4910424;28;98603;-77
2023/07/07 01:11:27;;;;;;;6.40;4.18;;;;;;;;;;4883218;28;101082;-77
2023/07/07 01:13:55;;;;;;;5.85;3.90;;;;;;;;;;4905425;28;100519;-77
2023/07/07 01:16:32;;;;;;;6.47;4.18;;;;;;;;;;4901188;28;98536;-77
2023/07/07 01:19:05;;;;;;;6.68;4.50;;;;;;;;;;4895526;28;98488;-77
2023/07/07 01:21:36;;;;;;;5.18;4.20;;;;;;;;;;4880714;28;98641;-78
2023/07/07 01:24:18;;;;;;;5.45;4.00;;;;;;;;;;4894933;28;99370;-77
2023/07/07 01:26:51;;;;;;;9.63;4.55;;;;;;;;;;4897579;28;100244;-77
2023/07/07 01:29:46;;;;;;;5.43;4.43;;;;;;;;;;4897556;28;98537;-77
2023/07/07 01:32:15;;;;;;;6.35;4.45;;;;;;;;;;4915076;28;98048;-77
2023/07/07 01:34:42;;;;;;;5.18;4.10;;;;;;;;;;4886270;28;99013;-77
2023/07/07 01:37:08;;;;;;;4.35;3.95;;;;;;;;;;4912267;28;98586;-77
2023/07/07 01:39:35;;;;;;;5.40;4.03;;;;;;;;;;4916864;28;98701;-77
2023/07/07 01:42:15;;;;;;;5.10;4.53;;;;;;;;;;4922306;28;98540;-77
2023/07/07 01:44:42;;;;;;;7.40;4.38;;;;;;;;;;4916122;28;98489;-77
2023/07/07 01:47:11;;;;;;;4.45;3.97;;;;;;;;;;4897479;28;101238;-76
2023/07/07 01:49:40;;;;;;;4.32;3.95;;;;;;;;;;4916704;28;99063;-76
2023/07/07 01:52:17;;;;;;;4.18;3.80;;;;;;;;;;4905835;28;98333;-76
2023/07/07 01:54:46;;;;;;;7.70;4.40;;;;;;;;;;4913694;28;98702;-76
2023/07/07 01:57:13;;;;;;;5.25;3.80;;;;;;;;;;4905765;28;97725;-77
2023/07/07 01:59:41;;;;;;;4.00;3.70;;;;;;;;;;4908611;28;99483;-76
2023/07/07 02:02:08;;;;;;;9.95;5.00;;;;;;;;;;4891463;28;98398;-76
2023/07/07 02:04:34;;;;;;;5.80;4.72;;;;;;;;;;4890635;28;99286;-76
2023/07/07 02:07:01;;;;;;;5.72;4.38;;;;;;;;;;4898929;28;98655;-76
2023/07/07 02:09:29;;;;;;;6.07;4.78;;;;;;;;;;4900757;28;98539;-76
2023/07/07 02:11:56;;;;;;;9.20;4.35;;;;;;;;;;4899827;28;98529;-76
2023/07/07 02:14:22;;;;;;;8.80;4.15;;;;;;;;;;4914968;28;100037;-76
2023/07/07 02:16:49;;;;;;;7.05;4.13;;;;;;;;;;4917314;28;98560;-76
2023/07/07 02:19:17;;;;;;;4.15;3.85;;;;;;;;;;4915725;28;98681;-76
2023/07/07 02:21:43;;;;;;;4.82;4.28;;;;;;;;;;4891976;28;99799;-76
2023/07/07 02:24:10;;;;;;;7.10;3.85;;;;;;;;;;4903693;28;98468;-76
2023/07/07 02:26:38;;;;;;;4.45;4.03;;;;;;;;;;4908559;28;98250;-76
2023/07/07 02:29:05;;;;;;;6.05;4.43;;;;;;;;;;4895808;28;99352;-76
2023/07/07 02:31:31;;;;;;;12.90;4.28;;;;;;;;;;4904844;28;100193;-76
2023/07/07 02:33:58;;;;;;;4.07;3.80;;;;;;;;;;4909407;28;98587;-76
2023/07/07 02:36:24;;;;;;;3.97;3.67;;;;;;;;;;4912210;28;100471;-76
2023/07/07 02:38:54;;;;;;;6.88;3.38;;;;;;;;;;4906161;28;99524;-76
2023/07/07 02:41:21;;;;;;;5.78;3.70;;;;;;;;;;4914584;28;99099;-76
2023/07/07 02:43:48;;;;;;;7.70;3.88;;;;;;;;;;4922016;28;98409;-76
2023/07/07 02:46:14;;;;;;;7.10;4.13;;;;;;;;;;4914608;28;97731;-76
2023/07/07 02:48:41;;;;;;;4.55;4.07;;;;;;;;;;4902022;28;98489;-76
2023/07/07 02:51:07;;;;;;;5.97;4.15;;;;;;;;;;4915170;28;99073;-76
2023/07/07 02:53:35;;;;;;;4.72;4.22;;;;;;;;;;4911888;28;101242;-76
2023/07/07 02:56:02;;;;;;;6.95;3.80;;;;;;;;;;4890844;28;98542;-76
2023/07/07 02:58:29;;;;;;;7.03;4.32;;;;;;;;;;4912692;28;98765;-76
2023/07/07 03:01:18;;;;;;;4.30;3.90;;;;;;;;;;4894956;28;100492;-76
2023/07/07 03:03:47;;;;;;;5.93;4.40;;;;;;;;;;4891577;28;99811;-76
2023/07/07 03:06:16;;;;;;;8.27;4.40;;;;;;;;;;4915773;28;98430;-76
2023/07/07 03:08:43;;;;;;;5.45;4.93;;;;;;;;;;4895591;28;98490;-76
2023/07/07 03:11:11;;;;;;;4.95;4.55;;;;;;;;;;4916349;28;97781;-76
2023/07/07 03:13:38;;;;;;;7.20;4.57;;;;;;;;;;4901569;28;101126;-77
2023/07/07 03:16:09;;;;;;;7.07;5.00;;;;;;;;;;4892268;28;98557;-76
2023/07/07 03:18:41;;;;;;;6.90;4.80;;;;;;;;;;4893652;28;99280;-77
2023/07/07 03:21:09;;;;;;;6.45;4.95;;;;;;;;;;4912693;28;101359;-77
2023/07/07 03:23:37;;;;;;;6.28;5.68;;;;;;;;;;4906467;28;98975;-77
2023/07/07 03:26:09;;;;;;;12.38;5.32;;;;;;;;;;4893329;28;98579;-77
2023/07/07 03:28:36;;;;;;;6.85;4.57;;;;;;;;;;4906476;28;102176;-76
2023/07/07 03:31:09;;;;;;;8.98;5.25;;;;;;;;;;4884770;28;98514;-77
2023/07/07 03:33:37;;;;;;;;;;;;;;;;;;4893458;28;99300;-77
2023/07/07 03:36:04;;;;;;;9.18;4.70;;;;;;;;;;4872747;28;1139771;-77
2023/07/07 03:38:31;;;;;;;6.20;4.85;;;;;;;;;;4876245;28;100010;-77
2023/07/07 03:40:58;;;;;;;7.38;5.15;;;;;;;;;;4906806;28;100941;-77
2023/07/07 03:43:33;;;;;;;5.65;4.78;;;;;;;;;;4901386;28;99269;-77
2023/07/07 03:46:01;;;;;;;6.47;5.33;;;;;;;;;;4913122;28;99534;-76
2023/07/07 03:48:28;;;;;;;8.07;5.03;;;;;;;;;;4891653;28;100239;-77
2023/07/07 03:50:56;;;;;;;5.65;4.63;;;;;;;;;;4902402;28;98445;-77
2023/07/07 03:53:23;;;;;;;6.18;4.95;;;;;;;;;;4891255;28;101556;-77
2023/07/07 03:55:51;;;;;;;9.45;6.10;;;;;;;;;;4891208;28;100744;-77
2023/07/07 03:58:17;;;;;;;5.47;4.97;;;;;;;;;;4912457;28;98612;-77
2023/07/07 04:00:46;;;;;;;5.55;5.00;;;;;;;;;;4900868;28;99245;-77
2023/07/07 04:03:13;;;;;;;7.03;5.78;;;;;;;;;;4903158;28;98587;-77
2023/07/07 04:05:42;;;;;;;9.05;7.10;;;;;;;;;;4915236;28;99379;-77
2023/07/07 04:08:09;;;;;;;7.82;6.13;;;;;;;;;;4893668;28;99958;-77
2023/07/07 04:10:35;;;;;;;7.63;5.90;;;;;;;;;;4904799;28;99127;-78
2023/07/07 04:13:02;;;;;;;5.20;4.78;;;;;;;;;;4902990;28;100746;-77
2023/07/07 04:15:28;;;;;;;6.50;5.90;;;;;;;;;;4909939;28;99276;-77
2023/07/07 04:17:55;;;;;;;8.05;5.47;;;;;;;;;;4906161;28;98504;-77
2023/07/07 04:20:21;;;;;;;8.00;6.28;;;;;;;;;;4881966;28;99270;-77
2023/07/07 04:22:48;;;;;;;6.95;5.57;;;;;;;;;;4906280;28;98557;-77
2023/07/07 04:25:16;;;;;;;6.93;6.30;;;;;;;;;;4897127;28;99415;-77
2023/07/07 04:27:43;;;;;;;7.97;5.80;;;;;;;;;;4899981;28;98548;-77
2023/07/07 04:30:10;;;;;;;6.47;5.40;;;;;;;;;;4878464;28;98554;-77
2023/07/07 04:32:37;;;;;;;7.90;7.10;;;;;;;;;;4898281;28;99296;-77
2023/07/07 04:35:04;;;;;;;7.95;7.20;;;;;;;;;;4909049;28;98827;-77
2023/07/07 04:37:31;;;;;;;16.13;6.43;;;;;;;;;;4901793;28;98416;-77
2023/07/07 04:39:58;;;;;;;11.57;7.20;;;;;;;;;;4893297;28;99169;-77
2023/07/07 04:42:24;;;;;;;8.43;6.75;;;;;;;;;;4911182;28;98800;-77
2023/07/07 04:44:51;;;;;;;7.35;6.53;;;;;;;;;;4901306;28;98566;-77
2023/07/07 04:47:17;;;;;;;10.23;7.25;;;;;;;;;;4903674;28;99069;-77
2023/07/07 04:49:44;;;;;;;7.82;5.90;;;;;;;;;;4900670;28;97868;-77
2023/07/07 04:52:10;;;;;;;7.15;5.95;;;;;;;;;;4901334;28;98545;-76
2023/07/07 04:54:37;;;;;;;12.20;8.60;;;;;;;;;;4877502;28;100098;-77
2023/07/07 04:57:04;;;;;;;7.05;6.35;;;;;;;;;;4897702;28;99291;-77
2023/07/07 04:59:31;;;;;;;7.47;6.25;;;;;;;;;;4911652;28;98706;-77
2023/07/07 05:01:57;;;;;;;14.20;6.13;;;;;;;;;;4899540;28;98472;-77
2023/07/07 05:04:24;;;;;;;8.70;7.28;;;;;;;;;;4903522;28;98505;-77
2023/07/07 05:06:50;;;;;;;9.55;7.05;;;;;;;;;;4912408;28;99177;-77
2023/07/07 05:09:17;;;;;;;9.13;6.45;;;;;;;;;;4908216;28;98712;-77
2023/07/07 05:11:43;;;;;;;13.00;7.20;;;;;;;;;;4911603;28;98515;-77
2023/07/07 05:14:10;;;;;;;9.55;7.00;;;;;;;;;;4911364;28;97872;-77
2023/07/07 05:16:37;;;;;;;12.50;8.80;;;;;;;;;;4911168;28;98663;-77
2023/07/07 05:19:04;;;;;;;10.43;7.60;;;;;;;;;;4908684;28;98873;-77
2023/07/07 05:21:31;;;;;;;11.23;7.65;;;;;;;;;;4902307;28;100740;-77
2023/07/07 05:23:58;;;;;;;10.18;7.93;;;;;;;;;;4897258;28;98524;-77
2023/07/07 05:26:27;;;;;;;10.73;8.55;;;;;;;;;;4902368;28;98870;-77
2023/07/07 05:28:56;;;;;;;10.57;7.80;;;;;;;;;;4908605;28;98788;-77
2023/07/07 05:31:22;;;;;;;12.05;9.70;;;;;;;;;;4912214;28;99094;-77
2023/07/07 05:33:50;;;;;;;11.00;9.23;;;;;;;;;;4897588;28;98589;-77
2023/07/07 05:36:16;;;;;;;15.90;9.95;;;;;;;;;;4893982;28;98595;-77
2023/07/07 05:38:43;;;;;;;14.30;10.57;;;;;;;;;;4909138;28;97751;-77
2023/07/07 05:41:09;;;;;;;9.55;8.38;;;;;;;;;;4883473;28;98665;-77
2023/07/07 05:43:36;;;;;;;11.73;8.95;;;;;;;;;;4899396;28;98520;-76
2023/07/07 05:46:04;;;;;;;16.35;9.82;;;;;;;;;;4902213;28;99258;-77
2023/07/07 05:48:31;;;;;;;12.32;9.02;;;;;;;;;;4896885;28;98481;-77
2023/07/07 05:50:58;;;;;;;13.52;9.68;;;;;;;;;;4920827;28;98620;-77
2023/07/07 05:53:26;;;;;;;19.17;8.85;;;;;;;;;;4907856;28;98502;-77
2023/07/07 05:55:56;;;;;;;12.18;7.97;;;;;;;;;;4902391;28;98677;-77
2023/07/07 05:58:22;;;;;;;11.48;9.05;;;;;;;;;;4903441;28;98617;-77
2023/07/07 06:00:49;;;;;;;9.15;8.15;;;;;;;;;;4905168;28;98680;-77
2023/07/07 06:03:15;;;;;;;10.23;7.25;;;;;;;;;;4910169;28;97781;-76
2023/07/07 06:05:43;;;;;;;12.18;8.05;;;;;;;;;;4909350;28;98519;-77
2023/07/07 06:08:09;;;;;;;13.77;8.27;;;;;;;;;;4908582;28;98609;-76
2023/07/07 06:10:37;;;;;;;18.35;8.82;;;;;;;;;;4890477;28;101487;-77
2023/07/07 06:13:03;;;;;;;12.13;7.40;;;;;;;;;;4899449;28;100609;-77
2023/07/07 06:15:30;;;;;;;17.80;7.95;;;;;;;;;;4896919;28;98462;-77
2023/07/07 06:17:57;;;;;;;12.20;6.88;;;;;;;;;;4907617;28;98482;-77
2023/07/07 06:20:27;;;;;;;13.02;7.43;;;;;;;;;;4910561;28;98666;-77
2023/07/07 06:22:54;;;;;;;8.88;6.60;;;;;;;;;;4909892;28;98566;-76
2023/07/07 06:25:21;;;;;;;10.43;6.75;;;;;;;;;;4896052;28;98512;-76
2023/07/07 06:27:47;;;;;;;14.68;6.07;;;;;;;;;;4893865;28;97777;-76
2023/07/07 06:30:14;;;;;;;12.98;6.65;;;;;;;;;;4908843;28;98590;-76
2023/07/07 06:32:40;;;;;;;6.07;5.18;;;;;;;;;;4878300;28;98265;-76
2023/07/07 06:35:07;;;;;;;8.02;5.28;;;;;;;;;;4899563;28;99420;-76
2023/07/07 06:37:34;;;;;;;19.17;5.53;;;;;;;;;;4875361;28;98587;-76
2023/07/07 06:40:00;;;;;;;12.43;5.45;;;;;;;;;;4892063;28;98626;-76
2023/07/07 06:42:27;;;;;;;9.32;5.20;;;;;;;;;;4893161;28;98622;-76
2023/07/07 06:45:00;;;;;;;9.07;4.20;;;;;;;;;;4898786;28;98575;-76
2023/07/07 06:47:27;;;;;;;7.75;4.70;;;;;;;;;;4891746;28;101397;-76
2023/07/07 06:49:54;;;;;;;7.28;4.35;;;;;;;;;;4894095;28;99000;-76
2023/07/07 06:52:20;;;;;;;7.82;5.10;;;;;;;;;;4898111;28;98611;-76
2023/07/07 06:54:47;;;;;;;8.20;3.80;;;;;;;;;;4893898;28;98548;-76
2023/07/07 06:57:13;;;;;;;8.73;4.75;;;;;;;;;;4902790;28;101163;-76
2023/07/07 06:59:39;;;;;;;8.70;4.22;;;;;;;;;;4876831;28;100855;-76
2023/07/07 07:02:10;;;;;;;7.68;3.88;;;;;;;;;;4903558;28;99130;-76
2023/07/07 07:04:37;;;;;;;9.77;4.43;;;;;;;;;;4894250;28;98470;-76
2023/07/07 07:07:03;;;;;;;8.63;3.83;;;;;;;;;;4896404;28;98760;-76
2023/07/07 07:09:30;;;;;;;5.93;4.05;;;;;;;;;;4917422;28;98537;-76
2023/07/07 07:11:56;;;;;;;11.35;4.25;;;;;;;;;;4896273;28;100389;-76
2023/07/07 07:14:23;;;;;;;13.20;5.15;;;;;;;;;;4912871;28;98521;-76
2023/07/07 07:16:50;;;;;;;15.25;3.97;;;;;;;;;;4912975;28;98665;-76
2023/07/07 07:19:17;;;;;;;19.20;4.03;;;;;;;;;;4903786;28;98630;-76
2023/07/07 07:21:43;;;;;;;6.18;4.05;;;;;;;;;;4914626;28;98560;-76
2023/07/07 07:24:10;;;;;;;6.97;3.58;;;;;;;;;;4915606;28;99046;-75
2023/07/07 07:26:37;;;;;;;5.47;2.90;;;;;;;;;;4913163;28;98499;-76
2023/07/07 07:29:03;;;;;;;4.60;2.85;;;;;;;;;;4908845;28;98545;-76
2023/07/07 07:31:29;;;;;;;7.70;3.60;;;;;;;;;;4915450;28;98510;-77
2023/07/07 07:34:16;;;;;;;8.45;3.33;;;;;;;;;;4896944;28;98550;-77
2023/07/07 07:36:43;;;;;;;7.47;2.60;;;;;;;;;;4893734;28;100979;-77
2023/07/07 07:39:09;;;;;;;8.77;2.70;;;;;;;;;;4894626;28;101109;-77
2023/07/07 07:41:36;;;;;;;6.65;2.65;;;;;;;;;;4902595;28;97731;-77
2023/07/07 07:44:02;;;;;;;7.72;2.63;;;;;;;;;;4919491;28;98764;-77
2023/07/07 07:46:29;;;;;;;9.75;3.22;;;;;;;;;;4912347;28;98475;-77
2023/07/07 07:48:55;;;;;;;6.93;2.90;;;;;;;;;;4920237;28;100311;-77
2023/07/07 07:51:22;;;;;;;5.22;2.83;;;;;;;;;;4905993;28;98599;-77
2023/07/07 07:54:00;;;;;;;3.00;2.47;;;;;;;;;;4909787;28;99264;-77
2023/07/07 07:56:27;;;;;;;6.55;2.53;;;;;;;;;;4903460;28;98384;-76
2023/07/07 07:58:53;;;;;;;5.68;2.63;;;;;;;;;;4911109;28;101737;-76
2023/07/07 08:01:19;;;;;;;5.07;2.22;;;;;;;;;;4895885;28;98531;-77
2023/07/07 08:03:46;;;;;;;6.82;2.63;;;;;;;;;;4904522;28;98333;-77
2023/07/07 08:06:13;;;;;;;8.10;2.47;;;;;;;;;;4914609;28;98064;-76
2023/07/07 08:08:39;;;;;;;3.78;2.22;;;;;;;;;;4896675;28;98684;-77
2023/07/07 08:11:05;;;;;;;8.18;2.88;;;;;;;;;;4913334;28;98415;-76
2023/07/07 08:13:37;;;;;;;6.53;3.03;;;;;;;;;;4908144;28;99322;-77
2023/07/07 08:16:08;;;;;;;6.72;2.50;;;;;;;;;;4905027;28;98688;-77
2023/07/07 08:18:35;;;;;;;5.00;2.15;;;;;;;;;;4898744;28;98524;-77
2023/07/07 08:21:01;;;;;;;4.30;2.08;;;;;;;;;;4892378;28;98405;-77
2023/07/07 08:23:28;;;;;;;7.97;2.35;;;;;;;;;;4908171;28;98485;-77
2023/07/07 08:25:54;;;;;;;6.55;2.10;;;;;;;;;;4911513;28;98616;-77
2023/07/07 08:28:24;;;;;;;5.07;2.30;;;;;;;;;;4888338;28;98535;-77
2023/07/07 08:30:50;;;;;;;5.65;2.58;;;;;;;;;;4907432;28;98071;-77
2023/07/07 08:33:18;;;;;;;5.40;1.92;;;;;;;;;;4905057;28;98455;-77
2023/07/07 08:35:45;;;;;;;9.13;2.08;;;;;;;;;;4891415;28;98623;-77
2023/07/07 08:38:11;;;;;;;4.95;1.80;;;;;;;;;;4874354;28;99056;-76
2023/07/07 08:40:49;;;;;;;4.70;1.80;;;;;;;;;;4888844;28;98587;-77
2023/07/07 08:43:16;;;;;;;1.90;1.48;;;;;;;;;;4889552;28;101119;-77
2023/07/07 08:45:57;;;;;;;2.58;1.60;;;;;;;;;;4903754;28;100136;-77
2023/07/07 08:48:29;;;;;;;2.70;1.55;;;;;;;;;;4893469;28;98401;-77
2023/07/07 08:50:58;;;;;;;3.72;1.75;;;;;;;;;;4891892;28;98408;-77
2023/07/07 08:53:31;;;;;;;6.20;1.95;;;;;;;;;;4894390;28;100468;-77
2023/07/07 08:56:04;;;;;;;6.55;1.55;;;;;;;;;;4883827;28;97938;-77
2023/07/07 08:58:50;;;;;;;3.72;1.45;;;;;;;;;;4892041;28;99479;-77
2023/07/07 09:01:25;;;;;;;2.10;1.50;;;;;;;;;;4894696;28;98635;-77
2023/07/07 09:04:03;;;;;;;9.13;2.20;;;;;;;;;;4899477;28;99190;-77
2023/07/07 09:06:46;;;;;;;4.70;2.00;;;;;;;;;;4884272;28;99361;-77
2023/07/07 09:09:14;;;;;;;3.58;1.60;;;;;;;;;;4887626;28;98575;-77
2023/07/07 09:11:49;;;;;;;3.35;2.30;;;;;;;;;;4891732;28;98364;-77
2023/07/07 09:14:16;;;;;;;3.00;1.50;;;;;;;;;;4894317;28;99172;-78
2023/07/07 09:16:44;;;;;;;2.75;1.77;;;;;;;;;;4891346;28;98437;-77
2023/07/07 09:19:12;;;;;;;5.40;1.63;;;;;;;;;;4897608;28;98526;-77
2023/07/07 09:21:43;;;;;;;8.38;1.90;;;;;;;;;;4905918;28;97865;-78
2023/07/07 09:24:10;;;;;;;;;;;;;;;;;;4891107;28;98198;-78
2023/07/07 09:26:38;;;;;;;3.95;1.70;;;;;;;;;;4874986;28;126234;-77
2023/07/07 09:29:12;;;;;;;7.95;1.60;;;;;;;;;;4904002;28;99361;-77
2023/07/07 09:31:43;;;;;;;5.22;1.73;;;;;;;;;;4875995;28;98522;-77
2023/07/07 09:34:11;;;;;;;4.85;2.15;;;;;;;;;;4886667;28;100688;-77
2023/07/07 09:36:41;;;;;;;4.05;1.75;;;;;;;;;;4897757;28;98680;-77
2023/07/07 09:39:12;;;;;;;3.38;1.77;;;;;;;;;;4907170;28;100290;-77
2023/07/07 09:41:58;;;;;;;3.78;1.88;;;;;;;;;;4895421;28;98403;-77
2023/07/07 09:44:31;;;;;;;5.93;1.80;;;;;;;;;;4911273;28;98671;-77
2023/07/07 09:47:05;;;;;;;5.22;2.00;;;;;;;;;;4894491;28;97424;-77
2023/07/07 09:49:32;;;;;;;3.83;1.60;;;;;;;;;;4889814;28;99275;-77
2023/07/07 09:52:03;;;;;;;2.90;2.13;;;;;;;;;;4901005;28;99740;-77
2023/07/07 09:54:30;;;;;;;4.30;2.05;;;;;;;;;;4906663;28;99188;-77
2023/07/07 09:57:05;;;;;;;5.55;3.05;;;;;;;;;;4889143;28;98632;-78
2023/07/07 09:59:34;;;;;;;3.20;1.67;;;;;;;;;;4892855;28;98925;-78
2023/07/07 10:02:01;;;;;;;6.70;2.03;;;;;;;;;;4892820;28;101854;-78
2023/07/07 10:04:29;;;;;;;2.35;2.10;;;;;;;;;;4894101;28;98484;-79
2023/07/07 10:07:03;;;;;;;2.67;1.65;;;;;;;;;;4899171;28;98539;-78
2023/07/07 10:09:31;;;;;;;7.68;1.90;;;;;;;;;;4910582;28;98459;-78
2023/07/07 10:11:58;;;;;;;4.90;2.25;;;;;;;;;;4893792;28;97557;-78
2023/07/07 10:14:45;;;;;;;2.75;1.77;;;;;;;;;;4911683;28;98499;-78
2023/07/07 10:17:31;;;;;;;7.30;2.17;;;;;;;;;;4912676;28;98873;-78
2023/07/07 10:19:59;;;;;;;7.32;2.17;;;;;;;;;;4897246;28;99134;-77
2023/07/07 10:22:25;;;;;;;6.07;2.00;;;;;;;;;;4898828;28;98529;-78
2023/07/07 10:24:52;;;;;;;3.58;1.52;;;;;;;;;;4911532;28;98393;-78
2023/07/07 10:27:20;;;;;;;6.55;2.10;;;;;;;;;;4879085;28;98590;-79
2023/07/07 10:29:47;;;;;;;2.45;2.03;;;;;;;;;;4894256;28;98500;-80
2023/07/07 10:32:20;;;;;;;2.85;1.83;;;;;;;;;;4892031;28;99031;-79
2023/07/07 10:34:48;;;;;;;5.95;2.00;;;;;;;;;;4892141;28;99232;-78
2023/07/07 10:37:17;;;;;;;3.30;1.88;;;;;;;;;;4860961;28;97826;-77
2023/07/07 10:39:48;;;;;;;2.60;1.80;;;;;;;;;;4874930;28;98429;-79
2023/07/07 10:42:14;;;;;;;3.55;1.95;;;;;;;;;;4893317;28;99907;-78
2023/07/07 10:44:41;;;;;;;2.60;1.75;;;;;;;;;;4892535;28;99197;-78
2023/07/07 10:47:10;;;;;;;2.53;1.77;;;;;;;;;;4893613;28;98443;-78
2023/07/07 10:49:48;;;;;;;3.40;1.90;;;;;;;;;;4895667;28;99373;-78
2023/07/07 10:52:34;;;;;;;5.55;1.90;;;;;;;;;;4894215;28;98503;-78
2023/07/07 10:55:27;;;;;;;6.30;2.10;;;;;;;;;;4887936;28;98601;-79
2023/07/07 10:57:59;;;;;;;6.28;1.95;;;;;;;;;;4907294;28;98509;-78
2023/07/07 11:00:44;;;;;;;5.55;2.17;;;;;;;;;;4888067;28;98487;-79
2023/07/07 11:03:29;;;;;;;4.53;2.10;;;;;;;;;;4889267;28;99065;-78
2023/07/07 11:05:58;;;;;;;5.78;1.98;;;;;;;;;;4888082;28;98520;-78
2023/07/07 11:08:33;;;;;;;8.15;2.03;;;;;;;;;;4892958;28;99165;-79
2023/07/07 11:11:18;;;;;;;9.55;2.30;;;;;;;;;;4904939;28;98828;-78
2023/07/07 11:14:00;;;;;;;7.05;2.30;;;;;;;;;;4921886;28;99211;-78
2023/07/07 11:16:35;;;;;;;7.07;2.28;;;;;;;;;;4907697;28;98585;-78
2023/07/07 11:19:05;;;;;;;2.35;2.15;;;;;;;;;;4879143;28;99402;-78
2023/07/07 11:21:31;;;;;;;2.63;1.85;;;;;;;;;;4895765;28;99911;-78
2023/07/07 11:24:12;;;;;;;3.22;1.90;;;;;;;;;;4899013;28;98392;-79
2023/07/07 11:26:58;;;;;;;3.83;1.83;;;;;;;;;;4891651;28;98562;-78
2023/07/07 11:29:30;;;;;;;3.75;2.13;;;;;;;;;;4892065;28;100233;-79
2023/07/07 11:31:57;;;;;;;6.13;2.20;;;;;;;;;;4890943;28;99081;-78
2023/07/07 11:34:28;;;;;;;2.90;2.08;;;;;;;;;;4887291;28;98537;-79
2023/07/07 11:37:00;;;;;;;5.70;1.83;;;;;;;;;;4869917;28;99520;-78
2023/07/07 11:39:35;;;;;;;3.80;2.10;;;;;;;;;;4872302;28;98539;-78
2023/07/07 11:42:22;;;;;;;3.90;1.90;;;;;;;;;;4881416;28;99972;-78
2023/07/07 11:45:08;;;;;;;13.13;2.15;;;;;;;;;;4872692;28;98516;-78
2023/07/07 11:47:37;;;;;;;5.35;2.35;;;;;;;;;;4872729;28;98547;-79
2023/07/07 11:50:23;;;;;;;7.07;1.85;;;;;;;;;;4873107;28;98499;-79
2023/07/07 11:53:05;;;;;;;2.58;1.95;;;;;;;;;;4861369;28;99957;-81
2023/07/07 11:55:38;;;;;;;7.65;1.92;;;;;;;;;;4865019;28;97664;-77
2023/07/07 11:58:12;;;;;;;3.85;1.85;;;;;;;;;;4882456;28;98420;-78
2023/07/07 12:00:54;;;;;;;2.63;1.70;;;;;;;;;;4892904;28;98391;-78
2023/07/07 12:03:29;;;;;;;4.15;1.80;;;;;;;;;;4870437;28;100342;-77
2023/07/07 12:05:59;;;;;;;3.08;2.17;;;;;;;;;;4884071;28;99175;-80
2023/07/07 12:08:36;;;;;;;4.05;2.03;;;;;;;;;;4885247;28;98633;-78
2023/07/07 12:11:06;;;;;;;5.32;1.95;;;;;;;;;;4873750;28;99346;-78
2023/07/07 12:13:56;;;;;;;5.13;1.92;;;;;;;;;;4864986;28;101021;-77
2023/07/07 12:16:23;;;;;;;4.22;1.73;;;;;;;;;;4876385;28;98564;-77
2023/07/07 12:18:54;;;;;;;12.30;2.53;;;;;;;;;;4865144;28;98466;-78
2023/07/07 12:21:23;;;;;;;3.78;2.13;;;;;;;;;;4878083;28;97712;-78
2023/07/07 12:23:56;;;;;;;9.48;2.08;;;;;;;;;;4877926;28;98498;-78
2023/07/07 12:26:29;;;;;;;2.75;2.15;;;;;;;;;;4872449;28;101296;-78
2023/07/07 12:28:58;;;;;;;2.95;2.10;;;;;;;;;;4870952;28;99898;-78
2023/07/07 12:31:28;;;;;;;6.47;2.28;;;;;;;;;;4877999;28;101177;-77
2023/07/07 12:33:54;;;;;;;2.53;2.00;;;;;;;;;;4882598;28;100177;-78
2023/07/07 12:36:28;;;;;;;3.08;1.98;;;;;;;;;;4915841;28;98603;-78
2023/07/07 12:38:56;;;;;;;4.85;2.35;;;;;;;;;;4913896;28;98642;-78
2023/07/07 12:41:24;;;;;;;5.07;2.25;;;;;;;;;;4903335;28;99340;-77
2023/07/07 12:43:58;;;;;;;2.90;2.00;;;;;;;;;;4901163;28;98592;-78
2023/07/07 12:46:30;;;;;;;5.18;2.00;;;;;;;;;;4879101;28;97474;-78
2023/07/07 12:48:59;;;;;;;2.83;2.00;;;;;;;;;;4902646;28;98592;-78
2023/07/07 12:51:29;;;;;;;5.25;2.38;;;;;;;;;;4902159;28;99009;-77
2023/07/07 12:53:56;;;;;;;8.65;2.30;;;;;;;;;;4892547;28;99581;-77
2023/07/07 12:56:30;;;;;;;3.03;2.30;;;;;;;;;;4908546;28;98518;-77
2023/07/07 12:59:01;;;;;;;7.13;2.53;;;;;;;;;;4914032;28;99416;-78
2023/07/07 13:01:35;;;;;;;3.00;2.08;;;;;;;;;;4903114;28;99569;-78
2023/07/07 13:04:02;;;;;;;5.47;2.15;;;;;;;;;;4905844;28;99810;-77
2023/07/07 13:06:47;;;;;;;6.70;2.08;;;;;;;;;;4907303;28;98552;-77
2023/07/07 13:09:13;;;;;;;3.55;2.22;;;;;;;;;;4912306;28;98615;-78
2023/07/07 13:11:41;;;;;;;3.75;2.00;;;;;;;;;;4898069;28;100271;-79
2023/07/07 13:14:27;;;;;;;3.10;1.83;;;;;;;;;;4915284;28;99410;-79
2023/07/07 13:16:55;;;;;;;6.32;2.33;;;;;;;;;;4908330;28;99644;-79
2023/07/07 13:19:22;;;;;;;4.35;2.05;;;;;;;;;;4881368;28;99228;-79
2023/07/07 13:21:49;;;;;;;3.55;2.10;;;;;;;;;;4897560;28;98603;-80
2023/07/07 13:24:17;;;;;;;2.38;1.80;;;;;;;;;;4898097;28;98939;-79
2023/07/07 13:26:44;;;;;;;6.60;1.70;;;;;;;;;;4894231;28;98494;-78
2023/07/07 13:29:10;;;;;;;5.25;2.17;;;;;;;;;;4903717;28;99133;-80
2023/07/07 13:31:38;;;;;;;5.53;2.08;;;;;;;;;;4913726;28;98534;-79
2023/07/07 13:34:06;;;;;;;4.10;2.08;;;;;;;;;;4912938;28;98505;-79
2023/07/07 13:36:33;;;;;;;3.15;1.95;;;;;;;;;;4913788;28;97801;-79
2023/07/07 13:39:04;;;;;;;4.63;2.63;;;;;;;;;;4896956;28;98530;-79
2023/07/07 13:41:31;;;;;;;2.05;1.77;;;;;;;;;;4896864;28;98391;-79
2023/07/07 13:43:58;;;;;;;2.22;1.95;;;;;;;;;;4913778;28;99292;-80
2023/07/07 13:46:26;;;;;;;3.47;2.03;;;;;;;;;;4896340;28;98437;-77
2023/07/07 13:49:02;;;;;;;2.10;1.90;;;;;;;;;;4912367;28;98479;-80
2023/07/07 13:51:34;;;;;;;3.75;2.17;;;;;;;;;;4898026;28;98679;-78
2023/07/07 13:54:01;;;;;;;7.20;2.53;;;;;;;;;;4912460;28;98443;-79
2023/07/07 13:56:28;;;;;;;2.67;1.80;;;;;;;;;;4907986;28;98509;-78
2023/07/07 13:58:55;;;;;;;8.00;2.20;;;;;;;;;;4902319;28;100295;-78
2023/07/07 14:01:36;;;;;;;3.97;1.80;;;;;;;;;;4918239;28;98247;-78
2023/07/07 14:04:07;;;;;;;6.75;2.13;;;;;;;;;;4905991;28;98363;-78
2023/07/07 14:06:34;;;;;;;2.03;1.77;;;;;;;;;;4895081;28;98468;-79
2023/07/07 14:09:01;;;;;;;5.25;2.03;;;;;;;;;;4888207;28;99364;-79
2023/07/07 14:11:28;;;;;;;2.28;2.00;;;;;;;;;;4895457;28;98533;-79
2023/07/07 14:13:56;;;;;;;3.65;1.90;;;;;;;;;;4905938;28;99116;-79
2023/07/07 14:16:35;;;;;;;4.05;1.60;;;;;;;;;;4886948;28;98181;-79
2023/07/07 14:19:15;;;;;;;1.65;1.55;;;;;;;;;;4896255;28;98488;-80
2023/07/07 14:21:42;;;;;;;1.70;1.60;;;;;;;;;;4910390;28;98622;-80
2023/07/07 14:24:12;;;;;;;5.40;1.90;;;;;;;;;;4898497;28;98569;-79
2023/07/07 14:26:39;;;;;;;2.10;1.77;;;;;;;;;;4914367;28;97845;-78
2023/07/07 14:29:07;;;;;;;4.33;1.60;;;;;;;;;;4886070;28;98568;-80
2023/07/07 14:31:34;;;;;;;5.35;1.90;;;;;;;;;;4909856;28;98380;-81
2023/07/07 14:34:02;;;;;;;3.30;1.63;;;;;;;;;;4907173;28;99196;-80
2023/07/07 14:36:30;;;;;;;4.05;1.92;;;;;;;;;;4892724;28;99129;-82
2023/07/07 14:39:01;;;;;;;164.18;12.00;;;;;;;;;;4905891;28;98552;-80
2023/07/07 14:41:28;;;;;;;;;;;;;;;;;;4896718;28;98511;-79
2023/07/07 14:43:54;;;;;;;;;;;;;;;;;;4918023;28;122413;-80
2023/07/07 14:46:21;;;;;;;;;;;;;;;;;;4918310;28;129253;-80
2023/07/07 14:49:02;;;;;;;;;;;;;;;;;;4905607;28;99332;-79
2023/07/07 14:51:29;;;;;;;;;;;;;;;;;;4917039;28;97788;-81
2023/07/07 14:53:58;;;;;;;;;;;;;;;;;;4922755;28;126019;-80
2023/07/07 14:56:24;;;;;;;;;;;;;;;;;;4916602;28;98640;-80
2023/07/07 14:58:51;;;;;;;;;;;;;;;;;;4900411;28;115616;-80